createdAt,value
2023-05-06T00:00:18.225Z,90.50
2023-05-06T00:02:48.853Z,90.38
2023-05-06T00:05:20.984Z,90.46
2023-05-06T00:07:51.375Z,91.59
2023-05-06T00:10:24.374Z,91.44
2023-05-06T00:12:54.954Z,91.97
2023-05-06T00:15:25.739Z,92.07
2023-05-06T00:17:56.078Z,90.65
2023-05-06T00:20:27.554Z,90.73
2023-05-06T00:22:58.254Z,91.46
2023-05-06T00:25:31.268Z,90.21
2023-05-06T00:28:01.812Z,90.33
2023-05-06T00:30:32.471Z,90.15
2023-05-06T00:33:03.138Z,90.32
2023-05-06T00:35:33.526Z,90.77
2023-05-06T00:38:12.172Z,90.31
2023-05-06T00:40:45.378Z,89.96
2023-05-06T00:43:16.452Z,88.41
2023-05-06T00:45:48.073Z,88.58
2023-05-06T00:48:19.329Z,89.11
2023-05-06T00:50:49.869Z,89.39
2023-05-06T00:53:24.576Z,89.97
2023-05-06T00:55:57.766Z,90.39
2023-05-06T00:58:28.549Z,91.02
2023-05-06T01:00:59.538Z,91.11
2023-05-06T01:03:30.345Z,91.55
2023-05-06T01:06:11.989Z,91.25
2023-05-06T01:08:51.695Z,91.22
2023-05-06T01:11:42.199Z,91.32
2023-05-06T01:14:24.945Z,91.78
2023-05-06T01:17:01.709Z,91.29
2023-05-06T01:19:42.279Z,91.28
2023-05-06T01:22:14.965Z,90.61
2023-05-06T01:24:49.480Z,89.78
2023-05-06T01:27:20.021Z,89.39
2023-05-06T01:29:51.693Z,89.27
2023-05-06T01:32:41.774Z,88.50
2023-05-06T01:35:24.520Z,88.41
2023-05-06T01:38:08.130Z,87.67
2023-05-06T01:40:43.566Z,87.49
2023-05-06T01:43:17.537Z,87.10
2023-05-06T01:45:53.536Z,87.86
2023-05-06T01:48:27.000Z,88.61
2023-05-06T01:50:59.086Z,88.64
2023-05-06T01:53:29.853Z,88.90
2023-05-06T01:56:02.992Z,89.88
2023-05-06T01:58:33.491Z,90.71
2023-05-06T02:01:04.016Z,91.20
2023-05-06T02:03:34.523Z,91.39
2023-05-06T02:06:04.984Z,90.64
2023-05-06T02:08:41.587Z,90.56
2023-05-06T02:11:18.184Z,90.17
2023-05-06T02:13:49.906Z,90.34
2023-05-06T02:16:22.188Z,90.62
2023-05-06T02:18:53.202Z,91.30
2023-05-06T02:21:23.761Z,91.94
2023-05-06T02:23:54.186Z,92.34
2023-05-06T02:26:27.199Z,91.88
2023-05-06T02:28:57.632Z,91.17
2023-05-06T02:31:28.312Z,91.68
2023-05-06T02:33:58.653Z,90.88
2023-05-06T02:36:29.178Z,91.64
2023-05-06T02:38:59.598Z,91.91
2023-05-06T02:41:32.724Z,91.70
2023-05-06T02:44:03.136Z,92.17
2023-05-06T02:46:35.292Z,91.91
2023-05-06T02:49:05.763Z,92.38
2023-05-06T02:51:36.468Z,93.03
2023-05-06T02:54:07.060Z,93.41
2023-05-06T02:56:40.019Z,93.98
2023-05-06T02:59:10.549Z,93.86
2023-05-06T03:01:40.889Z,93.76
2023-05-06T03:04:11.434Z,93.45
2023-05-06T03:06:41.886Z,92.83
2023-05-06T03:09:12.736Z,93.09
2023-05-06T03:11:46.217Z,92.83
2023-05-06T03:14:16.635Z,92.73
2023-05-06T03:16:47.190Z,93.10
2023-05-06T03:19:18.265Z,92.65
2023-05-06T03:21:49.467Z,92.08
2023-05-06T03:24:21.687Z,91.65
2023-05-06T03:26:55.118Z,92.32
2023-05-06T03:29:26.521Z,92.83
2023-05-06T03:31:59.740Z,92.89
2023-05-06T03:34:30.797Z,92.47
2023-05-06T03:37:02.599Z,92.21
2023-05-06T03:39:33.487Z,92.03
2023-05-06T03:42:09.409Z,92.61
2023-05-06T03:44:40.988Z,93.26
2023-05-06T03:47:11.899Z,93.21
2023-05-06T03:49:42.366Z,93.15
2023-05-06T03:52:12.798Z,93.14
2023-05-06T03:54:43.560Z,93.11
2023-05-06T03:57:16.567Z,92.80
2023-05-06T03:59:47.585Z,93.26
2023-05-06T04:02:19.769Z,93.51
2023-05-06T04:04:50.669Z,93.52
2023-05-06T04:07:21.051Z,93.31
2023-05-06T04:09:51.589Z,93.26
2023-05-06T04:12:25.089Z,93.17
2023-05-06T04:14:56.397Z,92.34
2023-05-06T04:17:27.270Z,92.07
2023-05-06T04:19:57.921Z,92.23
2023-05-06T04:22:28.282Z,92.94
2023-05-06T04:25:00.935Z,93.02
2023-05-06T04:27:35.135Z,93.16
2023-05-06T04:30:07.056Z,93.40
2023-05-06T04:32:38.737Z,92.87
2023-05-06T04:35:12.038Z,93.04
2023-05-06T04:37:44.533Z,93.21
2023-05-06T04:40:26.408Z,92.62
2023-05-06T04:42:59.675Z,92.85
2023-05-06T04:45:32.705Z,92.83
2023-05-06T04:48:03.156Z,93.23
2023-05-06T04:50:35.877Z,92.89
2023-05-06T04:53:06.278Z,93.03
2023-05-06T04:55:37.973Z,93.25
2023-05-06T04:58:11.008Z,93.41
2023-05-06T05:00:44.328Z,93.82
2023-05-06T05:03:14.964Z,93.76
2023-05-06T05:05:45.807Z,93.84
2023-05-06T05:08:20.328Z,93.38
2023-05-06T05:10:50.907Z,93.39
2023-05-06T05:13:26.892Z,93.17
2023-05-06T05:15:59.112Z,93.56
2023-05-06T05:18:32.675Z,94.07
2023-05-06T05:21:09.153Z,93.93
2023-05-06T05:23:40.258Z,94.28
2023-05-06T05:26:10.832Z,94.61
2023-05-06T05:28:44.808Z,94.69
2023-05-06T05:31:16.383Z,94.97
2023-05-06T05:33:47.064Z,95.35
2023-05-06T05:36:20.278Z,95.42
2023-05-06T05:38:53.311Z,95.61
2023-05-06T05:41:26.743Z,95.97
2023-05-06T05:44:00.940Z,96.44
2023-05-06T05:46:31.444Z,96.63
2023-05-06T05:49:02.048Z,96.61
2023-05-06T05:51:32.496Z,96.17
2023-05-06T05:54:05.261Z,96.11
2023-05-06T05:56:35.856Z,95.43
2023-05-06T05:59:09.127Z,95.75
2023-05-06T06:01:39.577Z,96.04
2023-05-06T06:04:11.774Z,96.00
2023-05-06T06:06:42.245Z,95.40
2023-05-06T06:09:13.290Z,95.08
2023-05-06T06:11:44.459Z,95.12
2023-05-06T06:14:17.985Z,94.12
2023-05-06T06:16:50.387Z,93.56
2023-05-06T06:19:21.870Z,92.95
2023-05-06T06:21:52.695Z,93.21
2023-05-06T06:24:23.480Z,93.42
2023-05-06T06:26:53.941Z,93.12
2023-05-06T06:29:27.221Z,92.29
2023-05-06T06:31:58.441Z,92.25
2023-05-06T06:34:29.045Z,92.28
2023-05-06T06:37:00.293Z,92.51
2023-05-06T06:39:30.664Z,92.38
2023-05-06T06:42:04.473Z,91.94
2023-05-06T06:44:43.737Z,91.20
2023-05-06T06:47:14.249Z,91.39
2023-05-06T06:49:44.865Z,91.11
2023-05-06T06:52:15.276Z,90.11
2023-05-06T06:54:45.862Z,90.16
2023-05-06T06:57:16.659Z,89.28
2023-05-06T06:59:52.113Z,89.67
2023-05-06T07:02:22.921Z,90.29
2023-05-06T07:04:53.489Z,90.02
2023-05-06T07:07:24.001Z,89.12
2023-05-06T07:09:54.408Z,89.15
2023-05-06T07:12:26.876Z,87.62
2023-05-06T07:14:59.898Z,87.98
2023-05-06T07:17:30.279Z,87.19
2023-05-06T07:20:00.865Z,85.89
2023-05-06T07:22:31.820Z,85.97
2023-05-06T07:25:02.243Z,87.02
2023-05-06T07:27:33.441Z,86.19
2023-05-06T07:30:08.278Z,85.47
2023-05-06T07:32:41.477Z,83.64
2023-05-06T07:35:13.035Z,84.32
2023-05-06T07:37:43.537Z,85.13
2023-05-06T07:40:14.921Z,85.82
2023-05-06T07:42:45.272Z,84.73
2023-05-06T07:45:19.857Z,83.62
2023-05-06T07:47:50.460Z,84.29
2023-05-06T07:50:20.992Z,84.13
2023-05-06T07:52:51.420Z,83.82
2023-05-06T07:55:21.997Z,82.96
2023-05-06T07:57:53.000Z,79.13
2023-05-06T08:00:26.091Z,78.86
2023-05-06T08:02:56.721Z,79.41
2023-05-06T08:05:27.191Z,78.38
2023-05-06T08:07:57.624Z,81.19
2023-05-06T08:10:28.209Z,81.81
2023-05-06T08:12:58.711Z,82.46
2023-05-06T08:15:32.096Z,80.91
2023-05-06T08:18:13.761Z,79.90
2023-05-06T08:20:51.942Z,79.96
2023-05-06T08:23:23.755Z,78.67
2023-05-06T08:25:54.198Z,76.67
2023-05-06T08:28:25.392Z,76.26
2023-05-06T08:30:59.099Z,73.20
2023-05-06T08:33:33.436Z,74.02
2023-05-06T08:36:03.902Z,76.79
2023-05-06T08:38:34.533Z,77.95
2023-05-06T08:41:12.234Z,78.53
2023-05-06T08:43:44.642Z,77.49
2023-05-06T08:46:18.388Z,77.37
2023-05-06T08:48:49.078Z,76.63
2023-05-06T08:51:20.054Z,75.78
2023-05-06T08:53:52.164Z,76.68
2023-05-06T08:56:27.211Z,73.73
2023-05-06T08:58:58.665Z,73.14
2023-05-06T09:01:32.745Z,73.00
2023-05-06T09:04:04.522Z,74.74
2023-05-06T09:06:34.941Z,74.85
2023-05-06T09:09:05.899Z,73.95
2023-05-06T09:11:36.330Z,72.30
2023-05-06T09:14:14.017Z,72.77
2023-05-06T09:16:51.178Z,71.80
2023-05-06T09:19:25.922Z,72.26
2023-05-06T09:21:56.980Z,70.93
2023-05-06T09:24:31.064Z,70.86
2023-05-06T09:27:01.967Z,68.10
2023-05-06T09:29:32.518Z,67.13
2023-05-06T09:32:11.910Z,66.77
2023-05-06T09:34:42.880Z,67.72
2023-05-06T09:37:13.755Z,65.88
2023-05-06T09:39:44.145Z,65.16
2023-05-06T09:42:14.694Z,63.74
2023-05-06T09:44:45.142Z,62.98
2023-05-06T09:47:21.585Z,59.46
2023-05-06T09:49:51.955Z,59.81
2023-05-06T09:52:22.521Z,59.01
2023-05-06T09:54:54.439Z,60.66
2023-05-06T09:57:26.433Z,61.64
2023-05-06T09:59:58.707Z,62.08
2023-05-06T10:02:32.433Z,62.97
2023-05-06T10:05:04.780Z,61.38
2023-05-06T10:07:35.931Z,60.39
2023-05-06T10:10:08.217Z,60.25
2023-05-06T10:12:39.290Z,62.87
2023-05-06T10:15:12.366Z,63.63
2023-05-06T10:17:49.039Z,63.20
2023-05-06T10:20:20.664Z,64.53
2023-05-06T10:23:02.962Z,61.42
2023-05-06T10:25:39.404Z,62.77
2023-05-06T10:28:18.169Z,60.91
2023-05-06T10:31:02.040Z,61.47
2023-05-06T10:33:35.355Z,61.02
2023-05-06T10:36:20.407Z,62.97
2023-05-06T10:38:57.563Z,63.25
2023-05-06T10:41:30.096Z,58.83
2023-05-06T10:44:01.062Z,58.46
2023-05-06T10:46:34.579Z,59.10
2023-05-06T10:49:23.839Z,58.60
2023-05-06T10:52:17.201Z,59.11
2023-05-06T10:54:55.105Z,58.28
2023-05-06T10:57:27.576Z,59.46
2023-05-06T10:59:58.143Z,57.92
2023-05-06T11:02:28.751Z,57.96
2023-05-06T11:05:07.763Z,54.63
2023-05-06T11:07:38.803Z,54.18
2023-05-06T11:10:13.571Z,53.49
2023-05-06T11:12:52.066Z,55.79
2023-05-06T11:15:28.502Z,57.08
2023-05-06T11:17:59.841Z,53.66
2023-05-06T11:20:32.782Z,52.68
2023-05-06T11:23:03.266Z,53.84
2023-05-06T11:25:43.923Z,53.58
2023-05-06T11:28:16.737Z,53.00
2023-05-06T11:30:57.250Z,52.99
2023-05-06T11:33:30.595Z,52.02
2023-05-06T11:36:04.616Z,50.47
2023-05-06T11:38:45.392Z,52.68
2023-05-06T11:41:16.267Z,52.27
2023-05-06T11:43:50.152Z,52.91
2023-05-06T11:46:23.030Z,51.45
2023-05-06T11:48:54.082Z,51.83
2023-05-06T11:51:28.715Z,50.58
2023-05-06T11:54:08.343Z,51.49
2023-05-06T11:56:54.556Z,52.14
2023-05-06T11:59:33.683Z,50.18
2023-05-06T12:02:06.518Z,49.80
2023-05-06T12:04:44.597Z,48.79
2023-05-06T12:07:19.021Z,48.03
2023-05-06T12:09:52.186Z,48.50
2023-05-06T12:12:25.176Z,46.09
2023-05-06T12:14:56.980Z,45.84
2023-05-06T12:17:27.670Z,46.90
2023-05-06T12:19:59.027Z,44.49
2023-05-06T12:22:31.986Z,42.40
2023-05-06T12:25:16.012Z,41.71
2023-05-06T12:27:46.382Z,42.91
2023-05-06T12:30:17.424Z,42.72
2023-05-06T12:33:00.194Z,43.42
2023-05-06T12:35:32.979Z,43.35
2023-05-06T12:38:15.007Z,41.46
2023-05-06T12:40:47.506Z,42.48
2023-05-06T12:43:17.950Z,42.18
2023-05-06T12:46:06.594Z,42.25
2023-05-06T12:48:37.053Z,41.93
2023-05-06T12:51:21.796Z,40.42
2023-05-06T12:53:54.545Z,40.38
2023-05-06T12:56:25.448Z,41.19
2023-05-06T12:59:03.758Z,41.33
2023-05-06T13:01:34.773Z,41.61
2023-05-06T13:04:05.425Z,42.33
2023-05-06T13:06:35.912Z,42.46
2023-05-06T13:09:09.868Z,41.28
2023-05-06T13:11:40.292Z,40.22
2023-05-06T13:14:11.115Z,42.10
2023-05-06T13:16:42.323Z,41.11
2023-05-06T13:19:30.947Z,40.67
2023-05-06T13:22:03.339Z,41.97
2023-05-06T13:24:36.651Z,42.93
2023-05-06T13:27:07.207Z,41.35
2023-05-06T13:29:37.770Z,40.91
2023-05-06T13:32:09.167Z,40.42
2023-05-06T13:34:39.945Z,38.15
2023-05-06T13:37:10.543Z,37.73
2023-05-06T13:39:43.647Z,37.55
2023-05-06T13:42:14.282Z,37.07
2023-05-06T13:44:44.732Z,36.94
2023-05-06T13:47:15.272Z,37.20
2023-05-06T13:49:45.968Z,35.98
2023-05-06T13:52:16.677Z,36.32
2023-05-06T13:54:49.695Z,35.51
2023-05-06T13:57:20.259Z,35.56
2023-05-06T13:59:50.655Z,35.74
2023-05-06T14:02:21.527Z,34.50
2023-05-06T14:04:51.982Z,34.35
2023-05-06T14:07:22.544Z,35.50
2023-05-06T14:09:55.887Z,33.17
2023-05-06T14:12:26.451Z,33.04
2023-05-06T14:14:57.350Z,33.98
2023-05-06T14:17:27.948Z,32.37
2023-05-06T14:19:58.328Z,30.85
2023-05-06T14:22:28.951Z,32.16
2023-05-06T14:25:02.237Z,32.02
2023-05-06T14:27:33.011Z,29.97
2023-05-06T14:30:08.229Z,30.27
2023-05-06T14:32:39.412Z,29.63
2023-05-06T14:35:13.392Z,29.77
2023-05-06T14:37:44.193Z,28.69
2023-05-06T14:40:19.333Z,29.61
2023-05-06T14:42:50.586Z,30.44
2023-05-06T14:45:21.741Z,29.03
2023-05-06T14:47:52.402Z,29.49
2023-05-06T14:50:23.180Z,29.83
2023-05-06T14:52:53.522Z,29.09
2023-05-06T14:55:26.711Z,29.42
2023-05-06T14:57:57.468Z,28.38
2023-05-06T15:00:28.917Z,29.06
2023-05-06T15:02:59.562Z,28.89
2023-05-06T15:05:30.160Z,28.77
2023-05-06T15:08:00.605Z,28.78
2023-05-06T15:10:33.894Z,28.79
2023-05-06T15:13:04.328Z,28.80
2023-05-06T15:15:34.778Z,28.85
2023-05-06T15:18:05.407Z,29.15
2023-05-06T15:20:36.207Z,28.75
2023-05-06T15:23:06.576Z,28.72
2023-05-06T15:25:39.950Z,29.12
2023-05-06T15:28:10.799Z,28.84
2023-05-06T15:30:41.562Z,28.07
2023-05-06T15:33:12.080Z,27.92
2023-05-06T15:35:42.491Z,27.30
2023-05-06T15:38:13.385Z,26.54
2023-05-06T15:40:53.449Z,26.99
2023-05-06T15:43:24.633Z,27.39
2023-05-06T15:45:55.386Z,27.11
2023-05-06T15:48:25.767Z,26.45
2023-05-06T15:50:56.379Z,27.15
2023-05-06T15:53:26.837Z,26.33
2023-05-06T15:56:13.190Z,25.59
2023-05-06T15:58:49.926Z,26.15
2023-05-06T16:01:26.936Z,26.54
2023-05-06T16:04:06.167Z,26.45
2023-05-06T16:06:37.690Z,27.27
2023-05-06T16:09:09.026Z,26.78
2023-05-06T16:11:42.237Z,27.79
2023-05-06T16:14:12.657Z,28.03
2023-05-06T16:16:43.282Z,28.25
2023-05-06T16:19:13.871Z,28.26
2023-05-06T16:21:44.182Z,27.88
2023-05-06T16:24:14.552Z,28.31
2023-05-06T16:26:47.834Z,28.84
2023-05-06T16:29:20.909Z,28.91
2023-05-06T16:31:51.692Z,29.23
2023-05-06T16:34:22.121Z,28.81
2023-05-06T16:36:53.099Z,28.50
2023-05-06T16:39:23.598Z,28.49
2023-05-06T16:41:56.780Z,28.74
2023-05-06T16:44:27.201Z,28.64
2023-05-06T16:46:57.679Z,28.88
2023-05-06T16:49:28.931Z,28.75
2023-05-06T16:52:00.733Z,28.98
2023-05-06T16:54:31.334Z,29.38
2023-05-06T16:57:04.672Z,29.49
2023-05-06T16:59:35.102Z,30.26
2023-05-06T17:02:05.808Z,30.53
2023-05-06T17:04:36.237Z,30.82
2023-05-06T17:07:06.985Z,30.83
2023-05-06T17:09:37.399Z,31.23
2023-05-06T17:12:11.036Z,30.81
2023-05-06T17:14:42.968Z,31.30
2023-05-06T17:17:13.337Z,31.60
2023-05-06T17:19:43.913Z,31.54
2023-05-06T17:22:14.290Z,32.23
2023-05-06T17:24:44.880Z,32.41
2023-05-06T17:27:18.185Z,32.63
2023-05-06T17:29:49.267Z,33.09
2023-05-06T17:32:20.004Z,33.32
2023-05-06T17:34:50.862Z,33.32
2023-05-06T17:37:21.290Z,33.89
2023-05-06T17:39:52.551Z,33.98
2023-05-06T17:42:27.659Z,33.82
2023-05-06T17:44:58.261Z,34.25
2023-05-06T17:47:30.399Z,34.85
2023-05-06T17:50:00.954Z,35.06
2023-05-06T17:52:31.582Z,35.63
2023-05-06T17:55:14.893Z,36.38
2023-05-06T17:57:50.916Z,35.98
2023-05-06T18:00:23.340Z,36.57
2023-05-06T18:02:54.012Z,37.17
2023-05-06T18:05:25.932Z,37.21
2023-05-06T18:07:56.354Z,37.43
2023-05-06T18:10:26.788Z,37.37
2023-05-06T18:12:59.981Z,37.52
2023-05-06T18:15:30.650Z,37.85
2023-05-06T18:18:01.147Z,38.09
2023-05-06T18:20:31.801Z,38.49
2023-05-06T18:23:02.257Z,38.60
2023-05-06T18:25:32.695Z,39.27
2023-05-06T18:28:05.656Z,40.07
2023-05-06T18:30:36.023Z,39.63
2023-05-06T18:33:06.672Z,39.55
2023-05-06T18:35:37.091Z,40.19
2023-05-06T18:38:07.424Z,39.98
2023-05-06T18:40:38.200Z,40.40
2023-05-06T18:43:11.384Z,40.32
2023-05-06T18:45:42.670Z,40.83
2023-05-06T18:48:13.288Z,40.82
2023-05-06T18:50:44.623Z,41.45
2023-05-06T18:53:15.124Z,41.36
2023-05-06T18:55:45.650Z,41.44
2023-05-06T18:58:18.636Z,41.49
2023-05-06T19:00:49.480Z,41.72
2023-05-06T19:03:19.900Z,42.27
2023-05-06T19:05:50.463Z,42.17
2023-05-06T19:08:20.786Z,42.26
2023-05-06T19:10:51.270Z,42.51
2023-05-06T19:13:24.337Z,42.57
2023-05-06T19:15:54.765Z,42.82
2023-05-06T19:18:25.112Z,43.35
2023-05-06T19:20:56.176Z,43.25
2023-05-06T19:23:26.863Z,43.34
2023-05-06T19:25:57.298Z,43.83
2023-05-06T19:28:30.504Z,44.30
2023-05-06T19:31:01.121Z,44.78
2023-05-06T19:33:31.651Z,44.92
2023-05-06T19:36:02.553Z,44.96
2023-05-06T19:38:33.091Z,45.04
2023-05-06T19:41:04.448Z,45.15
2023-05-06T19:43:37.505Z,44.90
2023-05-06T19:46:08.748Z,44.89
2023-05-06T19:48:39.169Z,45.31
2023-05-06T19:51:10.243Z,45.38
2023-05-06T19:53:40.672Z,45.49
2023-05-06T19:56:12.561Z,45.80
2023-05-06T19:58:46.188Z,46.26
2023-05-06T20:01:17.296Z,46.07
2023-05-06T20:03:47.918Z,46.22
2023-05-06T20:06:18.449Z,46.29
2023-05-06T20:08:48.981Z,47.00
2023-05-06T20:11:19.508Z,47.24
2023-05-06T20:13:52.534Z,47.69
2023-05-06T20:16:23.294Z,47.49
2023-05-06T20:18:54.153Z,47.58
2023-05-06T20:21:24.611Z,47.92
2023-05-06T20:23:55.292Z,48.19
2023-05-06T20:26:26.859Z,48.08
2023-05-06T20:29:01.233Z,47.83
2023-05-06T20:31:31.789Z,48.21
2023-05-06T20:34:02.243Z,48.19
2023-05-06T20:36:35.119Z,48.44
2023-05-06T20:39:05.654Z,48.58
2023-05-06T20:41:36.333Z,48.32
2023-05-06T20:44:09.669Z,48.33
2023-05-06T20:46:40.035Z,48.41
2023-05-06T20:49:11.087Z,48.86
2023-05-06T20:51:41.481Z,49.15
2023-05-06T20:54:12.155Z,49.09
2023-05-06T20:56:43.104Z,50.31
2023-05-06T20:59:16.093Z,50.82
2023-05-06T21:01:46.597Z,51.02
2023-05-06T21:04:17.836Z,50.80
2023-05-06T21:06:48.228Z,51.46
2023-05-06T21:09:19.063Z,51.71
2023-05-06T21:11:49.528Z,51.57
2023-05-06T21:14:23.558Z,51.99
2023-05-06T21:16:54.535Z,51.90
2023-05-06T21:19:24.916Z,52.27
2023-05-06T21:21:55.474Z,52.88
2023-05-06T21:24:26.339Z,52.84
2023-05-06T21:26:56.858Z,53.24
2023-05-06T21:29:29.981Z,52.94
2023-05-06T21:32:00.647Z,53.43
2023-05-06T21:34:31.571Z,53.33
2023-05-06T21:37:02.076Z,53.26
2023-05-06T21:39:32.513Z,54.00
2023-05-06T21:42:03.147Z,54.01
2023-05-06T21:44:36.324Z,54.67
2023-05-06T21:47:06.716Z,54.71
2023-05-06T21:49:37.059Z,54.18
2023-05-06T21:52:08.867Z,54.72
2023-05-06T21:54:39.343Z,55.45
2023-05-06T21:57:09.979Z,55.40
2023-05-06T21:59:43.233Z,55.35
2023-05-06T22:02:13.793Z,55.92
2023-05-06T22:04:44.587Z,56.38
2023-05-06T22:07:15.023Z,57.10
2023-05-06T22:09:45.711Z,57.81
2023-05-06T22:12:16.122Z,58.25
2023-05-06T22:14:49.099Z,58.25
2023-05-06T22:17:19.496Z,58.61
2023-05-06T22:19:50.002Z,59.00
2023-05-06T22:22:21.174Z,59.64
2023-05-06T22:24:51.607Z,59.84
2023-05-06T22:27:22.364Z,60.28
2023-05-06T22:29:55.591Z,60.39
2023-05-06T22:32:26.320Z,60.55
2023-05-06T22:34:56.915Z,61.22
2023-05-06T22:37:27.547Z,61.18
2023-05-06T22:39:59.243Z,61.38
2023-05-06T22:42:29.709Z,61.20
2023-05-06T22:45:02.865Z,61.21
2023-05-06T22:47:33.481Z,61.83
2023-05-06T22:50:03.950Z,61.96
2023-05-06T22:52:34.990Z,62.12
2023-05-06T22:55:06.049Z,62.33
2023-05-06T22:57:36.652Z,62.65
2023-05-06T23:00:13.874Z,62.62
2023-05-06T23:02:44.361Z,62.68
2023-05-06T23:05:15.018Z,63.00
2023-05-06T23:07:45.546Z,63.33
2023-05-06T23:10:16.018Z,63.62
2023-05-06T23:12:46.446Z,63.62
2023-05-06T23:15:19.467Z,63.84
2023-05-06T23:17:50.111Z,64.16
2023-05-06T23:20:20.762Z,64.37
2023-05-06T23:22:51.153Z,64.76
2023-05-06T23:25:22.083Z,64.95
2023-05-06T23:27:52.563Z,64.97
2023-05-06T23:30:25.695Z,65.46
2023-05-06T23:32:56.137Z,65.80
2023-05-06T23:35:27.047Z,65.61
2023-05-06T23:37:57.428Z,65.92
2023-05-06T23:40:28.021Z,66.07
2023-05-06T23:42:58.331Z,65.92
2023-05-06T23:45:31.680Z,66.12
2023-05-06T23:48:02.190Z,66.46
2023-05-06T23:50:32.854Z,66.35
2023-05-06T23:53:03.528Z,66.74
2023-05-06T23:55:34.552Z,66.83
2023-05-06T23:58:04.988Z,66.69
